createdAt,value
2019-02-19T00:00:17.455Z,22.30
2019-02-19T00:02:45.677Z,22.30
2019-02-19T00:05:13.945Z,22.30
2019-02-19T00:07:42.223Z,22.30
2019-02-19T00:10:10.435Z,22.30
2019-02-19T00:12:38.675Z,22.20
2019-02-19T00:15:08.555Z,22.30
2019-02-19T00:17:36.931Z,22.30
2019-02-19T00:20:05.388Z,22.20
2019-02-19T00:22:33.626Z,22.20
2019-02-19T00:25:01.871Z,22.20
2019-02-19T00:27:30.085Z,22.20
2019-02-19T00:29:58.312Z,22.20
2019-02-19T00:32:26.561Z,22.20
2019-02-19T00:34:54.785Z,22.20
2019-02-19T00:37:23.261Z,22.20
2019-02-19T00:39:51.492Z,22.20
2019-02-19T00:42:19.731Z,22.20
2019-02-19T00:44:49.457Z,22.20
2019-02-19T00:47:17.756Z,22.10
2019-02-19T00:49:45.996Z,22.10
2019-02-19T00:52:14.212Z,22.10
2019-02-19T00:54:42.459Z,22.10
2019-02-19T00:57:10.676Z,22.10
2019-02-19T00:59:38.896Z,22.10
2019-02-19T01:02:07.140Z,22.10
2019-02-19T01:04:35.364Z,22.10
2019-02-19T01:07:03.587Z,22.10
2019-02-19T01:09:31.819Z,22.10
2019-02-19T01:12:00.063Z,22.10
2019-02-19T01:14:28.519Z,22.10
2019-02-19T01:16:56.735Z,22.10
2019-02-19T01:19:24.978Z,22.10
2019-02-19T01:21:53.208Z,22.00
2019-02-19T01:24:21.437Z,22.00
2019-02-19T01:26:49.676Z,22.00
2019-02-19T01:29:18.148Z,22.00
2019-02-19T01:31:46.365Z,22.00
2019-02-19T01:34:14.840Z,22.00
2019-02-19T01:36:43.067Z,22.00
2019-02-19T01:39:11.303Z,22.00
2019-02-19T01:41:39.515Z,21.90
2019-02-19T01:44:07.988Z,21.90
2019-02-19T01:46:36.223Z,21.90
2019-02-19T01:49:04.444Z,21.90
2019-02-19T01:51:32.700Z,21.90
2019-02-19T01:54:01.145Z,21.90
2019-02-19T01:56:29.667Z,21.90
2019-02-19T01:58:57.907Z,21.90
2019-02-19T02:01:26.166Z,21.90
2019-02-19T02:03:54.399Z,21.90
2019-02-19T02:06:22.639Z,21.90
2019-02-19T02:08:50.892Z,21.90
2019-02-19T02:11:19.129Z,21.90
2019-02-19T02:13:47.607Z,21.90
2019-02-19T02:16:16.063Z,21.90
2019-02-19T02:18:44.284Z,21.90
2019-02-19T02:21:12.516Z,21.80
2019-02-19T02:23:40.760Z,21.80
2019-02-19T02:26:08.980Z,21.80
2019-02-19T02:28:37.229Z,21.80
2019-02-19T02:31:05.444Z,21.80
2019-02-19T02:33:33.689Z,21.80
2019-02-19T02:36:01.919Z,21.80
2019-02-19T02:38:30.132Z,21.80
2019-02-19T02:40:58.381Z,21.80
2019-02-19T02:43:26.616Z,21.80
2019-02-19T02:45:54.836Z,21.80
2019-02-19T02:48:23.053Z,21.80
2019-02-19T02:50:51.310Z,21.80
2019-02-19T02:53:19.789Z,21.80
2019-02-19T02:55:48.039Z,21.80
2019-02-19T02:58:16.505Z,21.70
2019-02-19T03:00:44.958Z,21.70
2019-02-19T03:03:13.209Z,21.80
2019-02-19T03:05:46.316Z,21.70
2019-02-19T03:08:14.796Z,21.70
2019-02-19T03:10:43.040Z,21.70
2019-02-19T03:13:11.256Z,21.70
2019-02-19T03:15:39.497Z,21.70
2019-02-19T03:18:07.974Z,21.70
2019-02-19T03:20:36.214Z,21.70
2019-02-19T03:23:04.428Z,21.70
2019-02-19T03:25:32.664Z,21.70
2019-02-19T03:28:00.882Z,21.60
2019-02-19T03:30:29.126Z,21.60
2019-02-19T03:32:57.350Z,21.60
2019-02-19T03:35:25.851Z,21.60
2019-02-19T03:37:54.060Z,21.60
2019-02-19T03:40:22.284Z,21.60
2019-02-19T03:42:50.521Z,21.60
2019-02-19T03:45:18.740Z,21.60
2019-02-19T03:47:46.980Z,21.60
2019-02-19T03:50:15.195Z,21.60
2019-02-19T03:52:43.432Z,21.50
2019-02-19T03:55:11.666Z,21.50
2019-02-19T03:57:39.879Z,21.50
2019-02-19T04:00:08.492Z,21.50
2019-02-19T04:02:36.715Z,21.50
2019-02-19T04:05:05.532Z,21.50
2019-02-19T04:07:33.784Z,21.50
2019-02-19T04:10:02.023Z,21.50
2019-02-19T04:12:30.241Z,21.50
2019-02-19T04:14:58.483Z,21.50
2019-02-19T04:17:26.701Z,21.40
2019-02-19T04:19:55.182Z,21.40
2019-02-19T04:22:23.410Z,21.40
2019-02-19T04:24:51.644Z,21.40
2019-02-19T04:27:19.864Z,21.40
2019-02-19T04:29:48.334Z,21.50
2019-02-19T04:32:16.784Z,21.40
2019-02-19T04:34:45.024Z,21.40
2019-02-19T04:37:13.509Z,21.40
2019-02-19T04:39:41.721Z,21.40
2019-02-19T04:42:10.197Z,21.40
2019-02-19T04:44:38.427Z,21.40
2019-02-19T04:47:06.660Z,21.40
2019-02-19T04:49:34.892Z,21.40
2019-02-19T04:52:03.135Z,21.40
2019-02-19T04:54:31.348Z,21.40
2019-02-19T04:56:59.571Z,21.40
2019-02-19T04:59:27.805Z,21.40
2019-02-19T05:01:56.024Z,21.40
2019-02-19T05:04:24.280Z,21.40
2019-02-19T05:06:52.731Z,21.40
2019-02-19T05:09:20.977Z,21.40
2019-02-19T05:11:49.211Z,21.40
2019-02-19T05:14:17.431Z,21.40
2019-02-19T05:16:45.907Z,21.40
2019-02-19T05:19:14.125Z,21.40
2019-02-19T05:21:42.609Z,21.40
2019-02-19T05:24:10.843Z,21.40
2019-02-19T05:26:39.260Z,21.30
2019-02-19T05:29:07.488Z,21.40
2019-02-19T05:31:35.731Z,21.30
2019-02-19T05:34:03.959Z,21.30
2019-02-19T05:36:32.195Z,21.30
2019-02-19T05:39:00.436Z,21.30
2019-02-19T05:41:28.643Z,21.30
2019-02-19T05:43:56.888Z,21.30
2019-02-19T05:46:25.105Z,21.30
2019-02-19T05:48:53.344Z,21.20
2019-02-19T05:51:21.559Z,21.20
2019-02-19T05:53:49.815Z,21.20
2019-02-19T05:56:18.028Z,21.20
2019-02-19T05:58:46.288Z,21.20
2019-02-19T06:01:14.549Z,21.10
2019-02-19T06:03:42.852Z,21.10
2019-02-19T06:06:11.084Z,21.10
2019-02-19T06:08:39.542Z,21.10
2019-02-19T06:11:07.776Z,21.10
2019-02-19T06:13:35.992Z,21.10
2019-02-19T06:16:04.232Z,21.10
2019-02-19T06:18:32.479Z,21.10
2019-02-19T06:21:00.716Z,21.10
2019-02-19T06:23:28.944Z,21.10
2019-02-19T06:25:57.241Z,21.10
2019-02-19T06:28:25.504Z,21.10
2019-02-19T06:30:53.730Z,21.10
2019-02-19T06:33:21.948Z,21.10
2019-02-19T06:35:50.306Z,21.10
2019-02-19T06:38:18.515Z,21.10
2019-02-19T06:40:46.739Z,21.10
2019-02-19T06:43:14.979Z,21.10
2019-02-19T06:45:43.200Z,21.10
2019-02-19T06:48:11.673Z,21.10
2019-02-19T06:50:39.900Z,21.10
2019-02-19T06:53:08.350Z,21.10
2019-02-19T06:55:36.608Z,21.10
2019-02-19T06:58:04.832Z,21.10
2019-02-19T07:00:33.044Z,21.10
2019-02-19T07:03:08.866Z,21.10
2019-02-19T07:05:37.080Z,21.20
2019-02-19T07:08:05.322Z,21.10
2019-02-19T07:10:33.544Z,21.10
2019-02-19T07:13:01.784Z,21.10
2019-02-19T07:15:30.233Z,21.10
2019-02-19T07:17:58.474Z,21.10
2019-02-19T07:20:26.924Z,21.10
2019-02-19T07:22:55.179Z,21.10
2019-02-19T07:25:23.383Z,21.10
2019-02-19T07:27:51.626Z,21.10
2019-02-19T07:30:19.844Z,21.10
2019-02-19T07:32:48.059Z,21.10
2019-02-19T07:35:16.300Z,21.10
2019-02-19T07:37:44.526Z,21.10
2019-02-19T07:40:12.764Z,21.00
2019-02-19T07:42:40.979Z,21.00
2019-02-19T07:45:11.069Z,20.90
2019-02-19T07:47:39.328Z,20.90
2019-02-19T07:50:11.641Z,20.90
2019-02-19T07:52:39.860Z,20.90
2019-02-19T07:55:09.550Z,20.90
2019-02-19T07:57:37.760Z,20.80
2019-02-19T08:00:13.594Z,20.80
2019-02-19T08:02:41.809Z,20.80
2019-02-19T08:05:10.265Z,20.80
2019-02-19T08:07:38.496Z,20.80
2019-02-19T08:10:09.338Z,20.80
2019-02-19T08:12:37.598Z,20.80
2019-02-19T08:15:10.744Z,20.90
2019-02-19T08:17:38.972Z,20.80
2019-02-19T08:20:15.315Z,20.80
2019-02-19T08:22:38.879Z,20.80
2019-02-19T08:25:07.156Z,20.80
2019-02-19T08:27:35.396Z,20.80
2019-02-19T08:30:04.016Z,20.80
2019-02-19T08:32:32.264Z,20.80
2019-02-19T08:35:00.715Z,20.80
2019-02-19T08:37:28.950Z,20.80
2019-02-19T08:39:57.168Z,20.80
2019-02-19T08:42:25.449Z,20.80
2019-02-19T08:44:53.749Z,20.80
2019-02-19T08:47:21.984Z,20.80
2019-02-19T08:49:50.200Z,20.80
2019-02-19T08:52:18.837Z,20.80
2019-02-19T08:54:47.291Z,20.80
2019-02-19T08:57:15.520Z,20.80
2019-02-19T08:59:43.764Z,20.80
2019-02-19T09:02:12.236Z,20.80
2019-02-19T09:04:40.452Z,20.80
2019-02-19T09:07:08.693Z,20.90
2019-02-19T09:09:36.913Z,20.90
2019-02-19T09:12:05.220Z,20.90
2019-02-19T09:14:33.452Z,20.90
2019-02-19T09:17:01.703Z,20.80
2019-02-19T09:19:29.931Z,20.80
2019-02-19T09:21:58.235Z,20.80
2019-02-19T09:24:26.474Z,20.80
2019-02-19T09:26:54.688Z,20.80
2019-02-19T09:29:22.924Z,20.80
2019-02-19T09:31:51.152Z,20.80
2019-02-19T09:34:19.407Z,20.90
2019-02-19T09:36:47.857Z,20.80
2019-02-19T09:39:16.095Z,20.80
2019-02-19T09:41:44.563Z,20.80
2019-02-19T09:44:12.776Z,20.80
2019-02-19T09:46:41.031Z,20.80
2019-02-19T09:49:09.247Z,20.80
2019-02-19T09:51:37.496Z,20.80
2019-02-19T09:54:05.708Z,20.80
2019-02-19T09:56:33.937Z,20.80
2019-02-19T09:59:02.169Z,20.80
2019-02-19T10:01:30.413Z,20.70
2019-02-19T10:03:58.656Z,20.80
2019-02-19T10:06:26.900Z,20.70
2019-02-19T10:08:55.348Z,20.80
2019-02-19T10:11:23.591Z,20.70
2019-02-19T10:13:51.824Z,20.80
2019-02-19T10:16:20.068Z,20.80
2019-02-19T10:18:48.312Z,20.80
2019-02-19T10:21:16.781Z,20.70
2019-02-19T10:23:45.024Z,20.80
2019-02-19T10:26:13.279Z,20.80
2019-02-19T10:28:41.503Z,20.80
2019-02-19T10:31:09.744Z,20.80
2019-02-19T10:33:37.991Z,20.80
2019-02-19T10:36:06.234Z,20.80
2019-02-19T10:38:34.469Z,20.80
2019-02-19T10:41:02.703Z,20.80
2019-02-19T10:43:30.931Z,20.80
2019-02-19T10:45:59.168Z,20.80
2019-02-19T10:48:27.416Z,20.80
2019-02-19T10:50:55.632Z,20.80
2019-02-19T10:53:23.876Z,20.80
2019-02-19T10:55:52.109Z,20.80
2019-02-19T10:58:22.915Z,20.80
2019-02-19T11:00:50.300Z,20.80
2019-02-19T11:03:18.516Z,20.80
2019-02-19T11:05:46.757Z,21.00
2019-02-19T11:08:14.996Z,21.10
2019-02-19T11:10:43.240Z,21.20
2019-02-19T11:13:11.688Z,21.40
2019-02-19T11:15:39.946Z,21.50
2019-02-19T11:18:08.152Z,21.60
2019-02-19T11:20:36.400Z,21.80
2019-02-19T11:23:04.611Z,21.90
2019-02-19T11:25:33.083Z,22.00
2019-02-19T11:28:01.295Z,22.10
2019-02-19T11:30:29.541Z,22.10
2019-02-19T11:32:57.763Z,22.10
2019-02-19T11:35:26.223Z,22.10
2019-02-19T11:37:54.439Z,22.20
2019-02-19T11:40:22.908Z,22.20
2019-02-19T11:42:51.126Z,22.20
2019-02-19T11:45:19.629Z,22.30
2019-02-19T11:47:47.859Z,22.30
2019-02-19T11:50:16.115Z,22.30
2019-02-19T11:52:44.380Z,22.30
2019-02-19T11:55:15.248Z,22.30
2019-02-19T11:57:43.485Z,22.40
2019-02-19T12:00:17.032Z,22.40
2019-02-19T12:02:45.276Z,22.30
2019-02-19T12:05:13.497Z,22.40
2019-02-19T12:07:41.719Z,22.40
2019-02-19T12:10:11.941Z,22.40
2019-02-19T12:12:40.136Z,22.30
2019-02-19T12:15:12.085Z,22.30
2019-02-19T12:17:40.321Z,22.30
2019-02-19T12:20:10.689Z,22.30
2019-02-19T12:22:38.892Z,22.30
2019-02-19T12:25:08.376Z,22.30
2019-02-19T12:27:36.591Z,22.30
2019-02-19T12:30:08.314Z,22.30
2019-02-19T12:32:36.534Z,22.30
2019-02-19T12:35:05.732Z,22.30
2019-02-19T12:37:33.959Z,22.30
2019-02-19T12:40:02.428Z,22.30
2019-02-19T12:42:30.648Z,22.30
2019-02-19T12:44:58.876Z,22.30
2019-02-19T12:47:27.117Z,22.20
2019-02-19T12:49:55.328Z,22.20
2019-02-19T12:52:23.570Z,22.20
2019-02-19T12:54:51.789Z,22.20
2019-02-19T12:57:20.036Z,22.20
2019-02-19T12:59:56.265Z,22.10
2019-02-19T13:02:19.643Z,22.20
2019-02-19T13:04:48.015Z,22.10
2019-02-19T13:07:16.270Z,22.20
2019-02-19T13:09:44.493Z,22.20
2019-02-19T13:12:12.737Z,22.30
2019-02-19T13:14:41.000Z,22.20
2019-02-19T13:17:09.479Z,22.20
2019-02-19T13:19:37.760Z,22.20
2019-02-19T13:22:06.232Z,22.20
2019-02-19T13:24:34.457Z,22.20
2019-02-19T13:27:02.716Z,22.20
2019-02-19T13:29:30.940Z,22.20
2019-02-19T13:31:59.201Z,22.20
2019-02-19T13:34:27.416Z,22.20
2019-02-19T13:36:55.676Z,22.20
2019-02-19T13:39:23.911Z,22.20
2019-02-19T13:41:52.196Z,22.20
2019-02-19T13:44:20.416Z,22.20
2019-02-19T13:46:48.665Z,22.20
2019-02-19T13:49:17.326Z,22.20
2019-02-19T13:51:45.668Z,22.20
2019-02-19T13:54:15.533Z,22.20
2019-02-19T13:56:44.069Z,22.20
2019-02-19T13:59:12.279Z,22.20
2019-02-19T14:01:40.520Z,22.20
2019-02-19T14:04:08.736Z,22.20
2019-02-19T14:06:36.975Z,22.30
2019-02-19T14:09:05.379Z,22.30
2019-02-19T14:11:33.653Z,22.30
2019-02-19T14:14:19.799Z,22.30
2019-02-19T14:16:49.700Z,22.40
2019-02-19T14:19:21.526Z,22.30
2019-02-19T14:21:51.158Z,22.40
2019-02-19T14:24:23.749Z,22.40
2019-02-19T14:27:02.456Z,22.40
2019-02-19T14:29:50.232Z,22.40
2019-02-19T14:32:20.367Z,22.40
2019-02-19T14:35:02.106Z,22.30
2019-02-19T14:37:37.900Z,22.40
2019-02-19T14:40:15.100Z,22.30
2019-02-19T14:42:59.820Z,22.30
2019-02-19T14:45:35.446Z,22.30
2019-02-19T14:48:21.717Z,22.30
2019-02-19T14:50:51.569Z,22.40
2019-02-19T14:53:24.453Z,22.40
2019-02-19T14:55:54.372Z,22.40
2019-02-19T14:58:40.541Z,22.40
2019-02-19T15:01:13.344Z,22.50
2019-02-19T15:03:59.504Z,22.50
2019-02-19T15:06:32.372Z,22.50
2019-02-19T15:09:02.242Z,22.50
2019-02-19T15:11:37.892Z,22.50
2019-02-19T15:14:25.753Z,22.50
2019-02-19T15:17:11.856Z,22.50
2019-02-19T15:19:50.433Z,22.50
2019-02-19T15:22:20.525Z,22.50
2019-02-19T15:24:56.336Z,22.60
2019-02-19T15:27:26.427Z,22.60
2019-02-19T15:30:01.993Z,22.60
2019-02-19T15:32:37.587Z,22.60
2019-02-19T15:35:07.556Z,22.60
2019-02-19T15:37:53.431Z,22.60
2019-02-19T15:40:32.596Z,22.70
2019-02-19T15:43:02.704Z,22.60
2019-02-19T15:45:35.248Z,22.70
2019-02-19T15:48:07.762Z,22.70
2019-02-19T15:50:53.693Z,22.70
2019-02-19T15:53:23.576Z,22.70
2019-02-19T15:55:56.356Z,22.70
2019-02-19T15:58:35.449Z,22.80
2019-02-19T16:01:21.268Z,22.80
2019-02-19T16:04:03.502Z,22.80
2019-02-19T16:06:49.405Z,22.80
2019-02-19T16:09:31.445Z,22.90
2019-02-19T16:12:17.325Z,22.90
2019-02-19T16:14:56.272Z,22.90
2019-02-19T16:17:42.484Z,22.90
2019-02-19T16:20:28.907Z,22.90
2019-02-19T16:23:14.768Z,22.90
2019-02-19T16:26:01.312Z,22.90
2019-02-19T16:28:33.850Z,22.90
2019-02-19T16:31:15.485Z,22.90
2019-02-19T16:33:54.329Z,22.90
2019-02-19T16:36:24.208Z,22.90
2019-02-19T16:39:09.181Z,22.80
2019-02-19T16:41:42.036Z,22.90
2019-02-19T16:44:29.987Z,22.90
2019-02-19T16:47:11.963Z,22.90
2019-02-19T16:49:48.122Z,22.90
2019-02-19T16:52:34.043Z,22.90
2019-02-19T16:55:04.137Z,22.90
2019-02-19T16:57:45.983Z,22.80
2019-02-19T17:00:19.251Z,22.80
2019-02-19T17:02:57.757Z,22.80
2019-02-19T17:05:33.569Z,22.80
2019-02-19T17:08:09.187Z,22.80
2019-02-19T17:10:44.993Z,22.70
2019-02-19T17:13:20.568Z,22.70
2019-02-19T17:16:05.272Z,22.70
2019-02-19T17:18:50.011Z,22.70
2019-02-19T17:21:28.832Z,22.70
2019-02-19T17:23:58.715Z,22.70
2019-02-19T17:26:34.488Z,22.70
2019-02-19T17:29:10.336Z,22.70
2019-02-19T17:31:42.860Z,22.60
2019-02-19T17:34:12.738Z,22.70
2019-02-19T17:36:51.580Z,22.70
2019-02-19T17:39:36.504Z,22.70
2019-02-19T17:42:08.816Z,22.70
2019-02-19T17:44:38.675Z,22.70
2019-02-19T17:47:26.356Z,22.70
2019-02-19T17:50:11.988Z,22.70
2019-02-19T17:52:56.736Z,22.60
2019-02-19T17:55:29.259Z,22.60
2019-02-19T17:58:01.832Z,22.60
2019-02-19T18:00:34.529Z,22.60
2019-02-19T18:03:10.467Z,22.60
2019-02-19T18:05:46.363Z,22.60
2019-02-19T18:08:18.932Z,22.60
2019-02-19T18:10:51.476Z,22.60
2019-02-19T18:13:21.360Z,22.50
2019-02-19T18:16:03.155Z,22.50
2019-02-19T18:18:41.720Z,22.50
2019-02-19T18:21:09.972Z,22.40
2019-02-19T18:23:38.184Z,22.40
2019-02-19T18:26:06.424Z,22.40
2019-02-19T18:28:34.660Z,22.30
2019-02-19T18:31:02.883Z,22.30
2019-02-19T18:33:31.124Z,22.20
2019-02-19T18:35:59.380Z,22.20
2019-02-19T18:38:27.613Z,22.20
2019-02-19T18:40:56.085Z,22.10
2019-02-19T18:43:24.312Z,22.10
2019-02-19T18:45:52.817Z,22.10
2019-02-19T18:48:21.073Z,22.10
2019-02-19T18:50:58.151Z,22.10
2019-02-19T18:53:19.491Z,22.00
2019-02-19T18:55:47.969Z,22.00
2019-02-19T18:58:16.183Z,22.00
2019-02-19T19:00:44.418Z,22.00
2019-02-19T19:03:12.664Z,22.00
2019-02-19T19:05:40.885Z,21.90
2019-02-19T19:08:09.107Z,21.90
2019-02-19T19:10:37.352Z,21.90
2019-02-19T19:13:05.572Z,21.80
2019-02-19T19:15:34.046Z,21.80
2019-02-19T19:18:02.497Z,21.80
2019-02-19T19:20:30.735Z,21.80
2019-02-19T19:22:58.953Z,21.80
2019-02-19T19:25:27.197Z,21.80
2019-02-19T19:27:55.532Z,21.80
2019-02-19T19:30:23.834Z,21.70
2019-02-19T19:32:52.296Z,21.70
2019-02-19T19:35:20.528Z,21.70
2019-02-19T19:37:48.755Z,21.70
2019-02-19T19:40:16.982Z,21.70
2019-02-19T19:42:45.221Z,21.60
2019-02-19T19:45:13.445Z,21.60
2019-02-19T19:47:41.699Z,21.60
2019-02-19T19:50:10.985Z,21.50
2019-02-19T19:52:39.200Z,21.50
2019-02-19T19:55:08.979Z,21.50
2019-02-19T19:57:37.453Z,21.50
2019-02-19T20:00:08.214Z,21.40
2019-02-19T20:02:36.460Z,21.40
2019-02-19T20:05:07.035Z,21.40
2019-02-19T20:07:35.279Z,21.40
2019-02-19T20:10:04.335Z,21.30
2019-02-19T20:12:32.572Z,21.30
2019-02-19T20:15:00.791Z,21.30
2019-02-19T20:17:29.032Z,21.30
2019-02-19T20:19:57.288Z,21.30
2019-02-19T20:22:25.529Z,21.20
2019-02-19T20:24:53.793Z,21.20
2019-02-19T20:27:22.026Z,21.20
2019-02-19T20:29:50.328Z,21.20
2019-02-19T20:32:18.816Z,21.20
2019-02-19T20:34:48.168Z,21.10
2019-02-19T20:37:16.435Z,21.10
2019-02-19T20:39:44.676Z,21.20
2019-02-19T20:42:12.918Z,21.20
2019-02-19T20:44:41.158Z,21.20
2019-02-19T20:47:09.381Z,21.10
2019-02-19T20:49:37.640Z,21.20
2019-02-19T20:52:05.922Z,21.20
2019-02-19T20:54:34.232Z,21.20
2019-02-19T20:57:02.677Z,21.10
2019-02-19T20:59:30.916Z,21.20
2019-02-19T21:01:59.138Z,21.10
2019-02-19T21:04:27.384Z,21.20
2019-02-19T21:06:55.603Z,21.10
2019-02-19T21:09:23.819Z,21.10
2019-02-19T21:11:52.070Z,21.00
2019-02-19T21:14:20.310Z,21.10
2019-02-19T21:16:48.515Z,21.10
2019-02-19T21:19:16.773Z,21.10
2019-02-19T21:21:45.317Z,21.00
2019-02-19T21:24:13.618Z,21.00
2019-02-19T21:26:41.837Z,21.00
2019-02-19T21:29:10.126Z,21.00
2019-02-19T21:31:40.278Z,21.00
2019-02-19T21:34:08.307Z,21.00
2019-02-19T21:36:36.544Z,21.00
2019-02-19T21:39:05.500Z,21.00
2019-02-19T21:41:33.976Z,21.00
2019-02-19T21:44:02.187Z,21.00
2019-02-19T21:46:30.432Z,20.90
2019-02-19T21:48:58.671Z,21.00
2019-02-19T21:51:26.916Z,20.90
2019-02-19T21:53:55.142Z,20.90
2019-02-19T21:56:23.370Z,20.90
2019-02-19T21:58:51.614Z,20.90
2019-02-19T22:01:19.823Z,20.90
2019-02-19T22:03:48.064Z,20.90
2019-02-19T22:06:16.285Z,20.90
2019-02-19T22:08:44.524Z,20.90
2019-02-19T22:11:12.984Z,20.90
2019-02-19T22:13:41.217Z,20.80
2019-02-19T22:16:09.455Z,20.80
2019-02-19T22:18:37.672Z,20.80
2019-02-19T22:21:07.547Z,20.80
2019-02-19T22:23:35.768Z,20.80
2019-02-19T22:26:04.085Z,20.80
2019-02-19T22:28:32.305Z,20.70
2019-02-19T22:31:00.545Z,20.80
2019-02-19T22:33:28.759Z,20.80
2019-02-19T22:35:57.029Z,20.80
2019-02-19T22:38:25.252Z,20.80
2019-02-19T22:40:55.395Z,20.70
2019-02-19T22:43:23.740Z,20.70
2019-02-19T22:45:51.961Z,20.70
2019-02-19T22:48:20.202Z,20.70
2019-02-19T22:50:48.425Z,20.70
2019-02-19T22:53:34.587Z,20.70
2019-02-19T22:56:04.466Z,20.60
2019-02-19T22:58:32.692Z,20.60
2019-02-19T23:01:02.564Z,20.60
2019-02-19T23:03:30.781Z,20.60
2019-02-19T23:05:59.008Z,20.60
2019-02-19T23:08:27.253Z,20.60
2019-02-19T23:10:55.487Z,20.60
2019-02-19T23:13:23.940Z,20.60
2019-02-19T23:15:52.176Z,20.60
2019-02-19T23:18:20.404Z,20.60
2019-02-19T23:20:48.630Z,20.60
2019-02-19T23:23:16.859Z,20.60
2019-02-19T23:25:45.106Z,20.60
2019-02-19T23:28:13.347Z,20.60
2019-02-19T23:30:41.566Z,20.50
2019-02-19T23:33:09.811Z,20.60
2019-02-19T23:35:48.783Z,20.50
2019-02-19T23:38:17.019Z,20.50
2019-02-19T23:40:45.260Z,20.50
2019-02-19T23:43:13.480Z,20.50
2019-02-19T23:45:41.720Z,20.50
2019-02-19T23:48:09.960Z,20.50
2019-02-19T23:50:38.431Z,20.50
2019-02-19T23:53:06.643Z,20.50
2019-02-19T23:55:34.881Z,20.50
2019-02-19T23:58:03.100Z,20.40
